sensor_id;sensor_type;location;lat;lon;timestamp;pressure;altitude;pressure_sealevel;temperature;humidity
55576;BME280;41437;45.478;9.116;2022-12-05T00:00:23;99848.28;;;7.14;100.00
55576;BME280;41437;45.478;9.116;2022-12-05T00:03:25;99846.25;;;7.09;100.00
55576;BME280;41437;45.478;9.116;2022-12-05T00:06:29;99850.09;;;7.20;100.00
55576;BME280;41437;45.478;9.116;2022-12-05T00:09:32;99847.59;;;7.18;100.00
55576;BME280;41437;45.478;9.116;2022-12-05T00:12:34;99842.69;;;7.20;100.00
55576;BME280;41437;45.478;9.116;2022-12-05T00:15:36;99848.41;;;7.19;100.00
55576;BME280;41437;45.478;9.116;2022-12-05T00:18:38;99843.88;;;7.13;100.00
55576;BME280;41437;45.478;9.116;2022-12-05T00:21:41;99844.59;;;7.20;100.00
55576;BME280;41437;45.478;9.116;2022-12-05T00:24:44;99849.63;;;7.23;100.00
55576;BME280;41437;45.478;9.116;2022-12-05T00:27:46;99852.56;;;7.21;100.00
55576;BME280;41437;45.478;9.116;2022-12-05T00:30:47;99852.09;;;7.13;100.00
55576;BME280;41437;45.478;9.116;2022-12-05T00:33:50;99856.97;;;7.22;100.00
55576;BME280;41437;45.478;9.116;2022-12-05T00:36:52;99854.47;;;7.21;100.00
55576;BME280;41437;45.478;9.116;2022-12-05T00:39:55;99857.22;;;7.21;100.00
55576;BME280;41437;45.478;9.116;2022-12-05T00:42:57;99845.69;;;7.19;100.00
55576;BME280;41437;45.478;9.116;2022-12-05T00:46:00;99856.50;;;7.25;100.00
55576;BME280;41437;45.478;9.116;2022-12-05T00:49:04;99862.22;;;7.24;100.00
55576;BME280;41437;45.478;9.116;2022-12-05T00:52:05;99856.63;;;7.19;100.00
55576;BME280;41437;45.478;9.116;2022-12-05T00:55:09;99856.50;;;7.25;100.00
55576;BME280;41437;45.478;9.116;2022-12-05T00:58:11;99857.34;;;7.26;100.00
55576;BME280;41437;45.478;9.116;2022-12-05T01:01:15;99848.03;;;7.27;100.00
55576;BME280;41437;45.478;9.116;2022-12-05T01:04:18;99844.47;;;7.26;100.00
55576;BME280;41437;45.478;9.116;2022-12-05T01:07:19;99838.03;;;7.21;100.00
55576;BME280;41437;45.478;9.116;2022-12-05T01:10:23;99855.22;;;7.28;100.00
55576;BME280;41437;45.478;9.116;2022-12-05T01:13:25;99859.50;;;7.24;100.00
55576;BME280;41437;45.478;9.116;2022-12-05T01:16:28;99859.84;;;7.27;100.00
55576;BME280;41437;45.478;9.116;2022-12-05T01:19:32;99864.97;;;7.24;100.00
55576;BME280;41437;45.478;9.116;2022-12-05T01:22:34;99871.66;;;7.28;100.00
55576;BME280;41437;45.478;9.116;2022-12-05T01:25:39;99866.63;;;7.25;100.00
55576;BME280;41437;45.478;9.116;2022-12-05T01:28:41;99883.44;;;7.28;100.00
55576;BME280;41437;45.478;9.116;2022-12-05T01:31:46;99870.56;;;7.29;100.00
55576;BME280;41437;45.478;9.116;2022-12-05T01:34:48;99869.97;;;7.27;100.00
55576;BME280;41437;45.478;9.116;2022-12-05T01:37:50;99878.19;;;7.39;100.00
55576;BME280;41437;45.478;9.116;2022-12-05T01:41:00;99871.75;;;7.33;100.00
55576;BME280;41437;45.478;9.116;2022-12-05T01:44:04;99877.34;;;7.38;100.00
55576;BME280;41437;45.478;9.116;2022-12-05T01:47:07;99885.81;;;7.37;100.00
55576;BME280;41437;45.478;9.116;2022-12-05T01:50:09;99888.31;;;7.38;100.00
55576;BME280;41437;45.478;9.116;2022-12-05T01:53:11;99883.19;;;7.30;100.00
55576;BME280;41437;45.478;9.116;2022-12-05T01:56:14;99879.16;;;7.33;100.00
55576;BME280;41437;45.478;9.116;2022-12-05T01:59:17;99870.69;;;7.34;100.00
55576;BME280;41437;45.478;9.116;2022-12-05T02:02:20;99862.94;;;7.31;100.00
55576;BME280;41437;45.478;9.116;2022-12-05T02:05:25;99866.38;;;7.26;100.00
55576;BME280;41437;45.478;9.116;2022-12-05T02:08:28;99859.00;;;7.15;100.00
55576;BME280;41437;45.478;9.116;2022-12-05T02:11:32;99876.06;;;7.29;100.00
55576;BME280;41437;45.478;9.116;2022-12-05T02:14:42;99871.88;;;7.26;100.00
55576;BME280;41437;45.478;9.116;2022-12-05T02:17:53;99870.81;;;7.27;100.00
55576;BME280;41437;45.478;9.116;2022-12-05T02:21:12;99879.88;;;7.28;100.00
55576;BME280;41437;45.478;9.116;2022-12-05T02:24:36;99870.47;;;7.24;100.00
55576;BME280;41437;45.478;9.116;2022-12-05T02:31:15;99866.16;;;7.28;100.00
55576;BME280;41437;45.478;9.116;2022-12-05T02:34:24;99861.72;;;7.27;100.00
55576;BME280;41437;45.478;9.116;2022-12-05T02:37:33;99851.50;;;7.22;100.00
55576;BME280;41437;45.478;9.116;2022-12-05T02:40:45;99868.41;;;7.31;100.00
55576;BME280;41437;45.478;9.116;2022-12-05T02:43:53;99859.59;;;7.29;100.00
55576;BME280;41437;45.478;9.116;2022-12-05T02:47:00;99864.47;;;7.27;100.00
55576;BME280;41437;45.478;9.116;2022-12-05T02:50:03;99865.81;;;7.24;100.00
55576;BME280;41437;45.478;9.116;2022-12-05T02:53:09;99863.06;;;7.24;100.00
55576;BME280;41437;45.478;9.116;2022-12-05T02:56:11;99861.03;;;7.20;100.00
55576;BME280;41437;45.478;9.116;2022-12-05T02:59:13;99855.56;;;7.20;100.00
55576;BME280;41437;45.478;9.116;2022-12-05T03:02:24;99859.97;;;7.21;100.00
55576;BME280;41437;45.478;9.116;2022-12-05T03:05:31;99859.72;;;7.22;100.00
55576;BME280;41437;45.478;9.116;2022-12-05T03:08:43;99864.38;;;7.22;100.00
55576;BME280;41437;45.478;9.116;2022-12-05T03:11:48;99859.97;;;7.21;100.00
55576;BME280;41437;45.478;9.116;2022-12-05T03:14:52;99859.97;;;7.21;100.00
55576;BME280;41437;45.478;9.116;2022-12-05T03:17:59;99859.97;;;7.21;100.00
55576;BME280;41437;45.478;9.116;2022-12-05T03:21:10;99860.91;;;7.26;100.00
55576;BME280;41437;45.478;9.116;2022-12-05T03:24:15;99867.09;;;7.22;100.00
55576;BME280;41437;45.478;9.116;2022-12-05T03:27:21;99865.44;;;7.21;100.00
55576;BME280;41437;45.478;9.116;2022-12-05T03:30:26;99858.06;;;7.21;100.00
55576;BME280;41437;45.478;9.116;2022-12-05T03:33:34;99855.31;;;7.21;100.00
55576;BME280;41437;45.478;9.116;2022-12-05T03:36:43;99859.50;;;7.24;100.00
55576;BME280;41437;45.478;9.116;2022-12-05T03:39:48;99844.47;;;7.26;100.00
55576;BME280;41437;45.478;9.116;2022-12-05T03:43:05;99852.94;;;7.25;100.00
55576;BME280;41437;45.478;9.116;2022-12-05T03:46:13;99850.78;;;7.27;100.00
55576;BME280;41437;45.478;9.116;2022-12-05T03:49:22;99842.09;;;7.30;100.00
55576;BME280;41437;45.478;9.116;2022-12-05T03:52:30;99848.66;;;7.29;100.00
55576;BME280;41437;45.478;9.116;2022-12-05T03:55:36;99843.06;;;7.24;100.00
55576;BME280;41437;45.478;9.116;2022-12-05T03:58:42;99851.84;;;7.26;100.00
55576;BME280;41437;45.478;9.116;2022-12-05T04:01:46;99853.50;;;7.27;100.00
55576;BME280;41437;45.478;9.116;2022-12-05T04:04:53;99850.56;;;7.28;100.00
55576;BME280;41437;45.478;9.116;2022-12-05T04:07:58;99847.91;;;7.22;100.00
55576;BME280;41437;45.478;9.116;2022-12-05T04:11:05;99850.19;;;7.25;100.00
55576;BME280;41437;45.478;9.116;2022-12-05T04:14:12;99838.75;;;7.28;100.00
55576;BME280;41437;45.478;9.116;2022-12-05T04:17:20;99835.03;;;7.22;100.00
55576;BME280;41437;45.478;9.116;2022-12-05T04:20:31;99852.47;;;7.28;100.00
55576;BME280;41437;45.478;9.116;2022-12-05T04:23:52;99850.78;;;7.27;100.00
55576;BME280;41437;45.478;9.116;2022-12-05T04:27:17;99846.38;;;7.26;100.00
55576;BME280;41437;45.478;9.116;2022-12-05T04:30:23;99849.72;;;7.28;100.00
55576;BME280;41437;45.478;9.116;2022-12-05T04:33:31;99853.28;;;7.28;100.00
55576;BME280;41437;45.478;9.116;2022-12-05T04:36:40;99851.97;;;7.31;100.00
55576;BME280;41437;45.478;9.116;2022-12-05T04:40:07;99857.34;;;7.26;100.00
55576;BME280;41437;45.478;9.116;2022-12-05T04:43:11;99853.28;;;7.28;100.00
55576;BME280;41437;45.478;9.116;2022-12-05T04:46:15;99852.34;;;7.23;100.00
55576;BME280;41437;45.478;9.116;2022-12-05T04:49:21;99860.09;;;7.14;100.00
55576;BME280;41437;45.478;9.116;2022-12-05T04:52:29;99864.88;;;7.19;100.00
55576;BME280;41437;45.478;9.116;2022-12-05T04:55:34;99855.91;;;7.12;100.00
55576;BME280;41437;45.478;9.116;2022-12-05T04:58:37;99872.59;;;7.22;100.00
55576;BME280;41437;45.478;9.116;2022-12-05T05:01:42;99875.94;;;7.24;100.00
55576;BME280;41437;45.478;9.116;2022-12-05T05:04:48;99879.50;;;7.24;100.00
55576;BME280;41437;45.478;9.116;2022-12-05T05:07:53;99874.75;;;7.20;100.00
55576;BME280;41437;45.478;9.116;2022-12-05T05:11:02;99876.31;;;7.27;100.00
55576;BME280;41437;45.478;9.116;2022-12-05T05:14:05;99874.38;;;7.28;100.00
55576;BME280;41437;45.478;9.116;2022-12-05T05:17:07;99868.91;;;7.28;100.00
55576;BME280;41437;45.478;9.116;2022-12-05T05:20:09;99879.25;;;7.26;100.00
55576;BME280;41437;45.478;9.116;2022-12-05T05:23:35;99871.53;;;7.23;100.00
55576;BME280;41437;45.478;9.116;2022-12-05T05:26:40;99873.41;;;7.22;100.00
55576;BME280;41437;45.478;9.116;2022-12-05T05:29:42;99881.88;;;7.21;100.00
55576;BME280;41437;45.478;9.116;2022-12-05T05:32:44;99885.94;;;7.18;100.00
55576;BME280;41437;45.478;9.116;2022-12-05T05:35:47;99875.69;;;7.25;100.00
55576;BME280;41437;45.478;9.116;2022-12-05T05:38:51;99885.94;;;7.30;100.00
55576;BME280;41437;45.478;9.116;2022-12-05T05:41:53;99894.88;;;7.25;100.00
55576;BME280;41437;45.478;9.116;2022-12-05T05:44:56;99892.38;;;7.24;100.00
55576;BME280;41437;45.478;9.116;2022-12-05T05:47:58;99903.34;;;7.24;100.00
55576;BME280;41437;45.478;9.116;2022-12-05T05:51:01;99904.16;;;7.24;100.00
55576;BME280;41437;45.478;9.116;2022-12-05T05:54:04;99907.03;;;7.29;100.00
55576;BME280;41437;45.478;9.116;2022-12-05T05:57:06;99906.19;;;7.29;100.00
55576;BME280;41437;45.478;9.116;2022-12-05T06:00:09;99905.38;;;7.28;100.00
55576;BME280;41437;45.478;9.116;2022-12-05T06:03:14;99903.91;;;7.26;100.00
55576;BME280;41437;45.478;9.116;2022-12-05T06:06:15;99909.66;;;7.24;100.00
55576;BME280;41437;45.478;9.116;2022-12-05T06:09:19;99913.34;;;7.30;100.00
55576;BME280;41437;45.478;9.116;2022-12-05T06:12:20;99918.13;;;7.23;100.00
55576;BME280;41437;45.478;9.116;2022-12-05T06:15:23;99916.09;;;7.30;100.00
55576;BME280;41437;45.478;9.116;2022-12-05T06:18:25;99918.47;;;7.26;100.00
55576;BME280;41437;45.478;9.116;2022-12-05T06:21:26;99927.75;;;7.25;100.00
55576;BME280;41437;45.478;9.116;2022-12-05T06:24:30;99934.06;;;7.26;100.00
55576;BME280;41437;45.478;9.116;2022-12-05T06:27:31;99929.41;;;7.26;100.00
55576;BME280;41437;45.478;9.116;2022-12-05T06:30:33;99934.31;;;7.24;100.00
55576;BME280;41437;45.478;9.116;2022-12-05T06:33:35;99927.88;;;7.19;100.00
55576;BME280;41437;45.478;9.116;2022-12-05T06:36:37;99931.56;;;7.24;100.00
55576;BME280;41437;45.478;9.116;2022-12-05T06:39:40;99931.22;;;7.21;100.00
55576;BME280;41437;45.478;9.116;2022-12-05T06:42:42;99934.66;;;7.16;100.00
55576;BME280;41437;45.478;9.116;2022-12-05T06:45:43;99930.00;;;7.17;100.00
55576;BME280;41437;45.478;9.116;2022-12-05T06:48:45;99937.41;;;7.16;100.00
55576;BME280;41437;45.478;9.116;2022-12-05T06:51:46;99927.72;;;7.14;100.00
55576;BME280;41437;45.478;9.116;2022-12-05T06:54:49;99934.78;;;7.21;100.00
55576;BME280;41437;45.478;9.116;2022-12-05T06:57:51;99941.72;;;7.24;100.00
55576;BME280;41437;45.478;9.116;2022-12-05T07:00:53;99939.06;;;7.17;100.00
55576;BME280;41437;45.478;9.116;2022-12-05T07:04:14;99942.31;;;7.14;100.00
55576;BME280;41437;45.478;9.116;2022-12-05T07:07:16;99947.28;;;7.17;100.00
55576;BME280;41437;45.478;9.116;2022-12-05T07:10:19;99940.84;;;7.12;100.00
55576;BME280;41437;45.478;9.116;2022-12-05T07:13:21;99954.56;;;7.12;100.00
55576;BME280;41437;45.478;9.116;2022-12-05T07:16:23;99950.28;;;7.16;100.00
55576;BME280;41437;45.478;9.116;2022-12-05T07:19:24;99954.56;;;7.12;100.00
55576;BME280;41437;45.478;9.116;2022-12-05T07:22:26;99956.34;;;7.06;100.00
55576;BME280;41437;45.478;9.116;2022-12-05T07:25:29;99957.88;;;7.14;100.00
55576;BME280;41437;45.478;9.116;2022-12-05T07:28:30;99954.47;;;7.18;100.00
55576;BME280;41437;45.478;9.116;2022-12-05T07:31:32;99955.75;;;7.16;100.00
55576;BME280;41437;45.478;9.116;2022-12-05T07:34:35;99955.13;;;7.14;100.00
55576;BME280;41437;45.478;9.116;2022-12-05T07:37:37;99953.25;;;7.14;100.00
55576;BME280;41437;45.478;9.116;2022-12-05T07:40:40;99962.53;;;7.13;100.00
55576;BME280;41437;45.478;9.116;2022-12-05T07:43:42;99965.75;;;7.22;100.00
55576;BME280;41437;45.478;9.116;2022-12-05T07:46:44;99970.53;;;7.26;100.00
55576;BME280;41437;45.478;9.116;2022-12-05T07:49:45;99974.81;;;7.22;100.00
55576;BME280;41437;45.478;9.116;2022-12-05T07:52:47;99977.09;;;7.25;100.00
55576;BME280;41437;45.478;9.116;2022-12-05T07:55:50;99980.19;;;7.29;100.00
55576;BME280;41437;45.478;9.116;2022-12-05T07:58:52;99982.56;;;7.25;100.00
55576;BME280;41437;45.478;9.116;2022-12-05T08:01:54;99967.19;;;7.13;100.00
55576;BME280;41437;45.478;9.116;2022-12-05T08:04:55;99975.66;;;7.35;100.00
55576;BME280;41437;45.478;9.116;2022-12-05T08:07:57;99983.78;;;7.41;100.00
55576;BME280;41437;45.478;9.116;2022-12-05T08:11:04;99981.97;;;7.35;100.00
55576;BME280;41437;45.478;9.116;2022-12-05T08:14:06;99982.69;;;7.30;100.00
55576;BME280;41437;45.478;9.116;2022-12-05T08:17:09;99973.75;;;7.35;100.00
55576;BME280;41437;45.478;9.116;2022-12-05T08:20:11;99981.53;;;7.38;100.00
55576;BME280;41437;45.478;9.116;2022-12-05T08:23:13;99981.53;;;7.38;100.00
55576;BME280;41437;45.478;9.116;2022-12-05T08:26:18;99979.41;;;7.40;100.00
55576;BME280;41437;45.478;9.116;2022-12-05T08:29:21;99979.59;;;7.39;100.00
55576;BME280;41437;45.478;9.116;2022-12-05T08:32:23;99981.97;;;7.35;100.00
55576;BME280;41437;45.478;9.116;2022-12-05T08:35:24;99971.50;;;7.32;100.00
55576;BME280;41437;45.478;9.116;2022-12-05T08:38:26;99992.13;;;7.35;100.00
55576;BME280;41437;45.478;9.116;2022-12-05T08:41:29;99997.00;;;7.44;100.00
55576;BME280;41437;45.478;9.116;2022-12-05T08:44:31;100001.53;;;7.39;100.00
55576;BME280;41437;45.478;9.116;2022-12-05T08:47:33;100006.81;;;7.40;100.00
55576;BME280;41437;45.478;9.116;2022-12-05T08:50:37;100008.34;;;7.36;100.00
55576;BME280;41437;45.478;9.116;2022-12-05T08:53:40;100009.88;;;7.32;100.00
55576;BME280;41437;45.478;9.116;2022-12-05T08:56:43;100023.34;;;7.34;100.00
55576;BME280;41437;45.478;9.116;2022-12-05T08:59:44;100027.63;;;7.29;100.00
55576;BME280;41437;45.478;9.116;2022-12-05T09:02:49;100016.28;;;7.26;100.00
55576;BME280;41437;45.478;9.116;2022-12-05T09:05:51;99993.28;;;7.27;100.00
55576;BME280;41437;45.478;9.116;2022-12-05T09:08:53;100004.13;;;7.22;100.00
55576;BME280;41437;45.478;9.116;2022-12-05T09:11:56;100020.34;;;7.35;100.00
55576;BME280;41437;45.478;9.116;2022-12-05T09:14:59;100020.72;;;7.39;100.00
55576;BME280;41437;45.478;9.116;2022-12-05T09:18:00;100015.50;;;7.37;100.00
55576;BME280;41437;45.478;9.116;2022-12-05T09:21:06;100014.09;;;7.58;100.00
55576;BME280;41437;45.478;9.116;2022-12-05T09:24:09;100015.53;;;7.72;100.00
55576;BME280;41437;45.478;9.116;2022-12-05T09:27:13;100015.88;;;7.76;100.00
55576;BME280;41437;45.478;9.116;2022-12-05T09:30:15;100007.06;;;7.74;100.00
55576;BME280;41437;45.478;9.116;2022-12-05T09:33:17;100004.81;;;7.71;100.00
55576;BME280;41437;45.478;9.116;2022-12-05T09:36:21;100008.59;;;7.58;100.00
55576;BME280;41437;45.478;9.116;2022-12-05T09:39:23;100012.91;;;7.54;100.00
55576;BME280;41437;45.478;9.116;2022-12-05T09:42:43;100010.75;;;7.68;100.00
55576;BME280;41437;45.478;9.116;2022-12-05T09:45:59;100005.13;;;7.74;100.00
55576;BME280;41437;45.478;9.116;2022-12-05T09:49:03;99991.31;;;7.58;100.00
55576;BME280;41437;45.478;9.116;2022-12-05T09:52:07;100013.38;;;7.63;100.00
55576;BME280;41437;45.478;9.116;2022-12-05T09:55:13;100001.78;;;7.61;100.00
55576;BME280;41437;45.478;9.116;2022-12-05T09:58:29;100016.81;;;7.70;100.00
55576;BME280;41437;45.478;9.116;2022-12-05T10:01:37;100022.56;;;7.80;100.00
55576;BME280;41437;45.478;9.116;2022-12-05T10:04:50;100032.34;;;7.76;100.00
55576;BME280;41437;45.478;9.116;2022-12-05T10:08:02;100023.75;;;7.72;100.00
55576;BME280;41437;45.478;9.116;2022-12-05T10:11:11;100018.03;;;7.74;100.00
55576;BME280;41437;45.478;9.116;2022-12-05T10:14:20;100006.69;;;7.70;100.00
55576;BME280;41437;45.478;9.116;2022-12-05T10:17:31;100012.53;;;7.74;100.00
55576;BME280;41437;45.478;9.116;2022-12-05T10:20:36;100021.97;;;7.78;100.00
55576;BME280;41437;45.478;9.116;2022-12-05T10:23:48;100004.41;;;7.79;100.00
55576;BME280;41437;45.478;9.116;2022-12-05T10:26:56;99986.81;;;7.75;100.00
55576;BME280;41437;45.478;9.116;2022-12-05T10:30:03;99983.91;;;7.70;100.00
55576;BME280;41437;45.478;9.116;2022-12-05T10:33:12;99988.56;;;7.81;100.00
55576;BME280;41437;45.478;9.116;2022-12-05T10:36:14;99985.22;;;7.79;100.00
55576;BME280;41437;45.478;9.116;2022-12-05T10:39:16;99971.41;;;7.86;100.00
55576;BME280;41437;45.478;9.116;2022-12-05T10:42:24;99964.09;;;7.91;100.00
55576;BME280;41437;45.478;9.116;2022-12-05T10:45:27;99966.97;;;7.96;100.00
55576;BME280;41437;45.478;9.116;2022-12-05T10:48:30;99963.63;;;7.94;100.00
55576;BME280;41437;45.478;9.116;2022-12-05T10:51:35;99967.47;;;7.93;100.00
55576;BME280;41437;45.478;9.116;2022-12-05T10:54:42;99966.00;;;8.02;100.00
55576;BME280;41437;45.478;9.116;2022-12-05T10:57:50;99967.09;;;8.01;100.00
55576;BME280;41437;45.478;9.116;2022-12-05T11:00:55;99959.22;;;7.93;100.00
55576;BME280;41437;45.478;9.116;2022-12-05T11:04:00;99954.69;;;7.99;100.00
55576;BME280;41437;45.478;9.116;2022-12-05T11:07:04;99955.41;;;8.06;100.00
55576;BME280;41437;45.478;9.116;2022-12-05T11:10:19;99967.78;;;8.09;100.00
55576;BME280;41437;45.478;9.116;2022-12-05T11:13:24;99965.28;;;8.19;100.00
55576;BME280;41437;45.478;9.116;2022-12-05T11:16:29;99964.41;;;8.18;100.00
55576;BME280;41437;45.478;9.116;2022-12-05T11:19:33;99952.97;;;8.10;100.00
55576;BME280;41437;45.478;9.116;2022-12-05T11:22:35;99958.22;;;8.23;100.00
55576;BME280;41437;45.478;9.116;2022-12-05T11:25:37;99947.09;;;8.29;100.00
55576;BME280;41437;45.478;9.116;2022-12-05T11:28:38;99961.66;;;8.30;100.00
55576;BME280;41437;45.478;9.116;2022-12-05T11:31:50;99944.50;;;8.23;100.00
55576;BME280;41437;45.478;9.116;2022-12-05T11:34:57;99955.81;;;8.26;100.00
55576;BME280;41437;45.478;9.116;2022-12-05T11:38:02;99939.69;;;8.30;100.00
55576;BME280;41437;45.478;9.116;2022-12-05T11:41:23;99936.19;;;8.35;100.00
55576;BME280;41437;45.478;9.116;2022-12-05T11:44:51;99931.78;;;8.45;100.00
55576;BME280;41437;45.478;9.116;2022-12-05T11:48:06;99934.03;;;8.48;100.00
55576;BME280;41437;45.478;9.116;2022-12-05T11:51:24;99920.31;;;8.48;100.00
55576;BME280;41437;45.478;9.116;2022-12-05T11:54:44;99914.81;;;8.48;100.00
55576;BME280;41437;45.478;9.116;2022-12-05T11:58:13;99912.66;;;8.50;100.00
55576;BME280;41437;45.478;9.116;2022-12-05T12:01:27;99925.31;;;8.51;100.00
55576;BME280;41437;45.478;9.116;2022-12-05T12:04:41;99917.06;;;8.51;100.00
55576;BME280;41437;45.478;9.116;2022-12-05T12:07:58;99915.16;;;8.52;100.00
55576;BME280;41437;45.478;9.116;2022-12-05T12:11:07;99907.84;;;8.57;100.00
55576;BME280;41437;45.478;9.116;2022-12-05T12:14:19;99910.00;;;8.55;100.00
55576;BME280;41437;45.478;9.116;2022-12-05T12:17:30;99913.94;;;8.60;100.00
55576;BME280;41437;45.478;9.116;2022-12-05T12:20:44;99916.19;;;8.63;100.00
55576;BME280;41437;45.478;9.116;2022-12-05T12:24:01;99909.53;;;8.59;100.00
55576;BME280;41437;45.478;9.116;2022-12-05T12:27:12;99898.94;;;8.50;100.00
55576;BME280;41437;45.478;9.116;2022-12-05T12:30:19;99898.69;;;8.52;100.00
55576;BME280;41437;45.478;9.116;2022-12-05T12:33:29;99883.72;;;8.60;100.00
55576;BME280;41437;45.478;9.116;2022-12-05T12:36:35;99885.16;;;8.62;100.00
55576;BME280;41437;45.478;9.116;2022-12-05T12:39:46;99871.75;;;8.66;100.00
55576;BME280;41437;45.478;9.116;2022-12-05T12:42:59;99872.03;;;8.81;100.00
55576;BME280;41437;45.478;9.116;2022-12-05T12:46:13;99874.03;;;8.86;100.00
55576;BME280;41437;45.478;9.116;2022-12-05T12:49:27;99871.53;;;8.84;100.00
55576;BME280;41437;45.478;9.116;2022-12-05T12:52:48;99873.00;;;8.92;100.00
55576;BME280;41437;45.478;9.116;2022-12-05T12:55:56;99874.94;;;8.91;100.00
55576;BME280;41437;45.478;9.116;2022-12-05T12:59:25;99864.28;;;8.95;100.00
55576;BME280;41437;45.478;9.116;2022-12-05T13:02:35;99861.78;;;8.93;100.00
55576;BME280;41437;45.478;9.116;2022-12-05T13:05:44;99860.78;;;8.99;100.00
55576;BME280;41437;45.478;9.116;2022-12-05T13:08:53;99867.69;;;8.85;100.00
55576;BME280;41437;45.478;9.116;2022-12-05T13:11:59;99860.69;;;8.94;100.00
55576;BME280;41437;45.478;9.116;2022-12-05T13:15:10;99870.59;;;8.95;100.00
55576;BME280;41437;45.478;9.116;2022-12-05T13:18:17;99870.13;;;8.98;100.00
55576;BME280;41437;45.478;9.116;2022-12-05T13:21:19;99870.19;;;8.87;100.00
55576;BME280;41437;45.478;9.116;2022-12-05T13:24:24;99866.59;;;8.86;100.00
55576;BME280;41437;45.478;9.116;2022-12-05T13:27:27;99873.75;;;8.87;100.00
55576;BME280;41437;45.478;9.116;2022-12-05T13:30:28;99863.94;;;8.91;100.00
55576;BME280;41437;45.478;9.116;2022-12-05T13:33:33;99864.88;;;8.97;100.00
55576;BME280;41437;45.478;9.116;2022-12-05T13:36:38;99851.63;;;8.94;100.00
55576;BME280;41437;45.478;9.116;2022-12-05T13:39:59;99860.78;;;8.99;100.00
55576;BME280;41437;45.478;9.116;2022-12-05T13:43:22;99860.28;;;9.02;100.00
55576;BME280;41437;45.478;9.116;2022-12-05T13:46:26;99863.59;;;9.04;100.00
55576;BME280;41437;45.478;9.116;2022-12-05T13:49:35;99855.28;;;8.99;100.00
55576;BME280;41437;45.478;9.116;2022-12-05T13:52:45;99854.78;;;9.02;100.00
55576;BME280;41437;45.478;9.116;2022-12-05T13:55:56;99859.94;;;8.99;100.00
55576;BME280;41437;45.478;9.116;2022-12-05T13:58:58;99866.88;;;9.01;100.00
55576;BME280;41437;45.478;9.116;2022-12-05T14:01:59;99869.28;;;8.98;100.00
55576;BME280;41437;45.478;9.116;2022-12-05T14:05:38;99879.66;;;8.79;100.00
55576;BME280;41437;45.478;9.116;2022-12-05T14:08:55;99879.34;;;8.75;100.00
55576;BME280;41437;45.478;9.116;2022-12-05T14:15:49;99860.19;;;8.64;100.00
55576;BME280;41437;45.478;9.116;2022-12-05T14:18:56;99885.38;;;8.61;100.00
55576;BME280;41437;45.478;9.116;2022-12-05T14:25:29;99875.31;;;8.66;100.00
55576;BME280;41437;45.478;9.116;2022-12-05T14:28:47;99869.22;;;8.47;100.00
55576;BME280;41437;45.478;9.116;2022-12-05T14:32:03;99865.56;;;8.42;100.00
55576;BME280;41437;45.478;9.116;2022-12-05T14:35:11;99869.97;;;8.31;100.00
55576;BME280;41437;45.478;9.116;2022-12-05T14:38:21;99874.41;;;8.32;100.00
55576;BME280;41437;45.478;9.116;2022-12-05T14:41:32;99872.59;;;8.38;100.00
55576;BME280;41437;45.478;9.116;2022-12-05T14:44:35;99875.59;;;8.36;100.00
55576;BME280;41437;45.478;9.116;2022-12-05T14:47:38;99873.22;;;8.28;100.00
55576;BME280;41437;45.478;9.116;2022-12-05T14:50:42;99874.03;;;8.40;100.00
55576;BME280;41437;45.478;9.116;2022-12-05T14:53:44;99869.97;;;8.43;100.00
55576;BME280;41437;45.478;9.116;2022-12-05T14:56:50;99866.03;;;8.39;100.00
55576;BME280;41437;45.478;9.116;2022-12-05T14:59:56;99854.22;;;8.38;100.00
55576;BME280;41437;45.478;9.116;2022-12-05T15:03:01;99857.22;;;8.37;100.00
55576;BME280;41437;45.478;9.116;2022-12-05T15:06:10;99854.94;;;8.34;100.00
55576;BME280;41437;45.478;9.116;2022-12-05T15:09:44;99855.75;;;8.34;100.00
55576;BME280;41437;45.478;9.116;2022-12-05T15:12:52;99845.72;;;8.40;100.00
55576;BME280;41437;45.478;9.116;2022-12-05T15:16:00;99850.47;;;8.44;100.00
55576;BME280;41437;45.478;9.116;2022-12-05T15:19:13;99853.00;;;8.46;100.00
55576;BME280;41437;45.478;9.116;2022-12-05T15:22:18;99847.25;;;8.47;100.00
55576;BME280;41437;45.478;9.116;2022-12-05T15:25:27;99856.22;;;8.43;100.00
55576;BME280;41437;45.478;9.116;2022-12-05T15:28:29;99853.13;;;8.39;100.00
55576;BME280;41437;45.478;9.116;2022-12-05T15:31:33;99864.00;;;8.34;100.00
55576;BME280;41437;45.478;9.116;2022-12-05T15:34:37;99863.06;;;8.28;100.00
55576;BME280;41437;45.478;9.116;2022-12-05T15:37:47;99861.16;;;8.29;100.00
55576;BME280;41437;45.478;9.116;2022-12-05T15:40:50;99863.28;;;8.27;100.00
55576;BME280;41437;45.478;9.116;2022-12-05T15:43:55;99865.00;;;8.28;100.00
55576;BME280;41437;45.478;9.116;2022-12-05T15:46:57;99873.13;;;8.23;100.00
55576;BME280;41437;45.478;9.116;2022-12-05T15:50:00;99877.31;;;8.14;100.00
55576;BME280;41437;45.478;9.116;2022-12-05T15:53:04;99881.03;;;8.07;100.00
55576;BME280;41437;45.478;9.116;2022-12-05T15:56:13;99882.59;;;8.03;100.00
55576;BME280;41437;45.478;9.116;2022-12-05T15:59:17;99886.34;;;7.86;100.00
55576;BME280;41437;45.478;9.116;2022-12-05T16:02:24;99880.53;;;7.70;100.00
55576;BME280;41437;45.478;9.116;2022-12-05T16:05:33;99884.00;;;7.66;100.00
55576;BME280;41437;45.478;9.116;2022-12-05T16:08:42;99884.50;;;7.63;100.00
55576;BME280;41437;45.478;9.116;2022-12-05T16:11:54;99884.25;;;7.64;100.00
55576;BME280;41437;45.478;9.116;2022-12-05T16:15:00;99874.97;;;7.53;100.00
55576;BME280;41437;45.478;9.116;2022-12-05T16:18:04;99869.34;;;7.48;100.00
55576;BME280;41437;45.478;9.116;2022-12-05T16:21:29;99874.25;;;7.46;100.00
55576;BME280;41437;45.478;9.116;2022-12-05T16:24:31;99882.22;;;7.48;100.00
55576;BME280;41437;45.478;9.116;2022-12-05T16:27:39;99876.38;;;7.44;100.00
55576;BME280;41437;45.478;9.116;2022-12-05T16:30:52;99882.47;;;7.35;100.00
55576;BME280;41437;45.478;9.116;2022-12-05T16:34:02;99892.59;;;7.22;100.00
55576;BME280;41437;45.478;9.116;2022-12-05T16:37:14;99887.13;;;7.11;100.00